PWSweather.com
Personal Weather Stations
Station Observations
BARC54
Barcellona Pozzo Di Gotto, Barcellona Pozzo Di GottoIT

Barcellona Pozzo Di GottoBarcellona Pozzo Di GottoIT

Lat: 38.13, Lon: 15.21

Elevation: 54

Station Type: Davis Vantage Pro 2 Wireless

Latest ConditionsUpdated 4:35:06 PM GMT+01:01 Sunday, Sep 22, 2019
Currently Today's Max Today's Min Today's Average
Temperature 86.6°F30.3°C 89.8°F32.1°C 72.4°F22.4°C 79.6°F26.4°C
Dew Point 68.9°F20.5°C 69.8°F21.0°C 63.7°F17.6°C 65.2°F18.4°C
Winds 2.0 mph SSW3.2 kmh SSW 16.0 mph -25.7 kmh - - 4.2 mph 6.8 kmh
Wind Gusts 5.0 mph8.0 kmh 26.0 mph41.8 kmh - -
Humidity 56% 75% 50% 62%
Pressure 29.98 in1015.2 mb 30.13 in1020.3 mb 29.98 in1015.2 mb -
Hour Temp Dew Point Humidity Winds Wind Gusts Pressure Precip Precip Rate Daily Precip Total
04:35 PM 86.6°F30.3°C 68.9°F20.5°C 56% 2.0 mph SSW3.2 kmh SSW 5.0 mph8.0 kmh 29.98 in1015.2 mb 0.00 in0.0 mm 0.00 in0.0 mm 0.00 in0.0 mm
04:30 PM 87.3°F30.7°C 68.0°F20.0°C 53% 2.0 mph WNW3.2 kmh WNW 3.0 mph4.8 kmh 29.98 in1015.2 mb 0.00 in0.0 mm 0.00 in0.0 mm 0.00 in0.0 mm
04:25 PM 87.4°F30.8°C 68.1°F20.1°C 53% Calm Calm 4.0 mph6.4 kmh 29.98 in1015.2 mb 0.00 in0.0 mm 0.00 in0.0 mm 0.00 in0.0 mm
04:20 PM 87.4°F30.8°C 68.1°F20.1°C 53% Calm Calm 4.0 mph6.4 kmh 29.98 in1015.2 mb 0.00 in0.0 mm 0.00 in0.0 mm 0.00 in0.0 mm
04:15 PM 87.4°F30.8°C 68.6°F20.3°C 54% Calm Calm 6.0 mph9.7 kmh 29.98 in1015.2 mb 0.00 in0.0 mm 0.00 in0.0 mm 0.00 in0.0 mm
04:10 PM 87.4°F30.8°C 69.2°F20.7°C 55% 1.0 mph W1.6 kmh W 6.0 mph9.7 kmh 29.98 in1015.2 mb 0.00 in0.0 mm 0.00 in0.0 mm 0.00 in0.0 mm
04:05 PM 87.5°F30.8°C 69.8°F21.0°C 56% 1.0 mph W1.6 kmh W 6.0 mph9.7 kmh 29.98 in1015.2 mb 0.00 in0.0 mm 0.00 in0.0 mm 0.00 in0.0 mm
04:00 PM 88.4°F31.3°C 69.6°F20.9°C 54% 1.0 mph NW1.6 kmh NW 7.0 mph11.3 kmh 29.98 in1015.2 mb 0.00 in0.0 mm 0.00 in0.0 mm 0.00 in0.0 mm
03:55 PM 89.5°F31.9°C 69.5°F20.8°C 52% 2.0 mph W3.2 kmh W 7.0 mph11.3 kmh 29.98 in1015.2 mb 0.00 in0.0 mm 0.00 in0.0 mm 0.00 in0.0 mm
03:50 PM 89.8°F32.1°C 68.6°F20.3°C 50% 2.0 mph SW3.2 kmh SW 3.0 mph4.8 kmh 29.98 in1015.2 mb 0.00 in0.0 mm 0.00 in0.0 mm 0.00 in0.0 mm
03:45 PM 88.9°F31.6°C 68.9°F20.5°C 52% Calm Calm -- 29.98 in1015.2 mb 0.00 in0.0 mm 0.00 in0.0 mm 0.00 in0.0 mm
03:40 PM 88.3°F31.3°C 68.4°F20.2°C 52% Calm Calm 3.0 mph4.8 kmh 29.98 in1015.2 mb 0.00 in0.0 mm 0.00 in0.0 mm 0.00 in0.0 mm
03:35 PM 88.1°F31.2°C 68.2°F20.1°C 52% Calm Calm 5.0 mph8.0 kmh 29.98 in1015.2 mb 0.00 in0.0 mm 0.00 in0.0 mm 0.00 in0.0 mm
03:30 PM 88.2°F31.2°C 68.3°F20.2°C 52% Calm Calm 5.0 mph8.0 kmh 29.98 in1015.2 mb 0.00 in0.0 mm 0.00 in0.0 mm 0.00 in0.0 mm
03:25 PM 88.5°F31.4°C 68.5°F20.3°C 52% 2.0 mph W3.2 kmh W 7.0 mph11.3 kmh 29.98 in1015.2 mb 0.00 in0.0 mm 0.00 in0.0 mm 0.00 in0.0 mm
03:20 PM 88.1°F31.2°C 68.7°F20.4°C 53% 2.0 mph WSW3.2 kmh WSW 5.0 mph8.0 kmh 29.98 in1015.2 mb 0.00 in0.0 mm 0.00 in0.0 mm 0.00 in0.0 mm
03:15 PM 88.0°F31.1°C 68.6°F20.3°C 53% 2.0 mph S3.2 kmh S 4.0 mph6.4 kmh 29.98 in1015.2 mb 0.00 in0.0 mm 0.00 in0.0 mm 0.00 in0.0 mm
03:10 PM 87.3°F30.7°C 68.5°F20.3°C 54% Calm Calm 3.0 mph4.8 kmh 29.98 in1015.2 mb 0.00 in0.0 mm 0.00 in0.0 mm 0.00 in0.0 mm
03:05 PM 87.1°F30.6°C 67.8°F19.9°C 53% 3.0 mph SSE4.8 kmh SSE 6.0 mph9.7 kmh 29.98 in1015.2 mb 0.00 in0.0 mm 0.00 in0.0 mm 0.00 in0.0 mm
03:00 PM 87.2°F30.7°C 67.9°F19.9°C 53% 1.0 mph S1.6 kmh S 8.0 mph12.9 kmh 29.98 in1015.2 mb 0.00 in0.0 mm 0.00 in0.0 mm 0.00 in0.0 mm
02:55 PM 87.3°F30.7°C 67.4°F19.7°C 52% 8.0 mph SSW12.9 kmh SSW 9.0 mph14.5 kmh 29.98 in1015.2 mb 0.00 in0.0 mm 0.00 in0.0 mm 0.00 in0.0 mm
02:50 PM 86.9°F30.5°C 67.6°F19.8°C 53% 4.0 mph SW6.4 kmh SW 10.0 mph16.1 kmh 29.98 in1015.2 mb 0.00 in0.0 mm 0.00 in0.0 mm 0.00 in0.0 mm
02:45 PM 86.3°F30.2°C 68.1°F20.1°C 55% 6.0 mph S9.7 kmh S 7.0 mph11.3 kmh 29.98 in1015.2 mb 0.00 in0.0 mm 0.00 in0.0 mm 0.00 in0.0 mm
02:40 PM 86.0°F30.0°C 67.9°F19.9°C 55% 5.0 mph S8.0 kmh S 10.0 mph16.1 kmh 29.98 in1015.2 mb 0.00 in0.0 mm 0.00 in0.0 mm 0.00 in0.0 mm
02:35 PM 86.3°F30.2°C 67.6°F19.8°C 54% 5.0 mph S8.0 kmh S 8.0 mph12.9 kmh 29.98 in1015.2 mb 0.00 in0.0 mm 0.00 in0.0 mm 0.00 in0.0 mm
02:30 PM 86.4°F30.2°C 67.7°F19.8°C 54% 7.0 mph SSW11.3 kmh SSW 9.0 mph14.5 kmh 29.98 in1015.2 mb 0.00 in0.0 mm 0.00 in0.0 mm 0.00 in0.0 mm
02:25 PM 86.5°F30.3°C 67.8°F19.9°C 54% 1.0 mph SSE1.6 kmh SSE 10.0 mph16.1 kmh 29.99 in1015.6 mb 0.00 in0.0 mm 0.00 in0.0 mm 0.00 in0.0 mm
02:20 PM 86.4°F30.2°C 67.7°F19.8°C 54% 2.0 mph SSE3.2 kmh SSE 4.0 mph6.4 kmh 29.99 in1015.6 mb 0.00 in0.0 mm 0.00 in0.0 mm 0.00 in0.0 mm
02:15 PM 86.5°F30.3°C 67.3°F19.6°C 53% Calm Calm 11.0 mph17.7 kmh 29.99 in1015.6 mb 0.00 in0.0 mm 0.00 in0.0 mm 0.00 in0.0 mm
02:10 PM 86.5°F30.3°C 67.3°F19.6°C 53% 3.0 mph S4.8 kmh S 7.0 mph11.3 kmh 29.99 in1015.6 mb 0.00 in0.0 mm 0.00 in0.0 mm 0.00 in0.0 mm
02:05 PM 86.4°F30.2°C 67.2°F19.6°C 53% Calm Calm 8.0 mph12.9 kmh 29.99 in1015.6 mb 0.00 in0.0 mm 0.00 in0.0 mm 0.00 in0.0 mm
02:00 PM 86.0°F30.0°C 66.8°F19.3°C 53% 4.0 mph S6.4 kmh S 10.0 mph16.1 kmh 29.99 in1015.6 mb 0.00 in0.0 mm 0.00 in0.0 mm 0.00 in0.0 mm
01:55 PM 85.9°F29.9°C 66.7°F19.3°C 53% 7.0 mph SSW11.3 kmh SSW 11.0 mph17.7 kmh 29.99 in1015.6 mb 0.00 in0.0 mm 0.00 in0.0 mm 0.00 in0.0 mm
01:50 PM 86.0°F30.0°C 66.2°F19.0°C 52% 9.0 mph S14.5 kmh S 14.0 mph22.5 kmh 29.99 in1015.6 mb 0.00 in0.0 mm 0.00 in0.0 mm 0.00 in0.0 mm
01:45 PM 85.4°F29.7°C 66.2°F19.0°C 53% 3.0 mph SE4.8 kmh SE 13.0 mph20.9 kmh 30.00 in1015.9 mb 0.00 in0.0 mm 0.00 in0.0 mm 0.00 in0.0 mm
01:40 PM 85.6°F29.8°C 67.0°F19.4°C 54% 8.0 mph SE12.9 kmh SE 13.0 mph20.9 kmh 30.00 in1015.9 mb 0.00 in0.0 mm 0.00 in0.0 mm 0.00 in0.0 mm
01:35 PM 85.2°F29.6°C 66.6°F19.2°C 54% 8.0 mph SE12.9 kmh SE 11.0 mph17.7 kmh 30.00 in1015.9 mb 0.00 in0.0 mm 0.00 in0.0 mm 0.00 in0.0 mm
01:30 PM 84.8°F29.3°C 66.8°F19.3°C 55% 9.0 mph ESE14.5 kmh ESE 15.0 mph24.1 kmh 29.99 in1015.6 mb 0.00 in0.0 mm 0.00 in0.0 mm 0.00 in0.0 mm
01:25 PM 84.5°F29.2°C 66.5°F19.2°C 55% 7.0 mph S11.3 kmh S 17.0 mph27.4 kmh 30.00 in1015.9 mb 0.00 in0.0 mm 0.00 in0.0 mm 0.00 in0.0 mm
01:20 PM 84.7°F29.3°C 66.7°F19.3°C 55% 7.0 mph SE11.3 kmh SE 9.0 mph14.5 kmh 29.99 in1015.6 mb 0.00 in0.0 mm 0.00 in0.0 mm 0.00 in0.0 mm
01:15 PM 84.5°F29.2°C 66.5°F19.2°C 55% 3.0 mph E4.8 kmh E 8.0 mph12.9 kmh 30.00 in1015.9 mb 0.00 in0.0 mm 0.00 in0.0 mm 0.00 in0.0 mm
01:10 PM 84.7°F29.3°C 66.1°F18.9°C 54% 6.0 mph SE9.7 kmh SE 12.0 mph19.3 kmh 30.00 in1015.9 mb 0.00 in0.0 mm 0.00 in0.0 mm 0.00 in0.0 mm
01:05 PM 84.8°F29.3°C 66.2°F19.0°C 54% 8.0 mph SE12.9 kmh SE 15.0 mph24.1 kmh 30.00 in1015.9 mb 0.00 in0.0 mm 0.00 in0.0 mm 0.00 in0.0 mm
01:00 PM 84.9°F29.4°C 66.3°F19.1°C 54% 8.0 mph SE12.9 kmh SE 12.0 mph19.3 kmh 30.00 in1015.9 mb 0.00 in0.0 mm 0.00 in0.0 mm 0.00 in0.0 mm
12:55 PM 84.6°F29.2°C 66.0°F18.9°C 54% 9.0 mph SE14.5 kmh SE 13.0 mph20.9 kmh 30.00 in1015.9 mb 0.00 in0.0 mm 0.00 in0.0 mm 0.00 in0.0 mm
12:50 PM 84.2°F29.0°C 66.2°F19.0°C 55% 5.0 mph SE8.0 kmh SE 16.0 mph25.7 kmh 30.00 in1015.9 mb 0.00 in0.0 mm 0.00 in0.0 mm 0.00 in0.0 mm
12:45 PM 84.2°F29.0°C 65.7°F18.7°C 54% 9.0 mph SE14.5 kmh SE 15.0 mph24.1 kmh 30.00 in1015.9 mb 0.00 in0.0 mm 0.00 in0.0 mm 0.00 in0.0 mm
12:40 PM 84.2°F29.0°C 66.2°F19.0°C 55% 5.0 mph SSE8.0 kmh SSE 18.0 mph29.0 kmh 30.01 in1016.3 mb 0.00 in0.0 mm 0.00 in0.0 mm 0.00 in0.0 mm
12:35 PM 84.3°F29.1°C 65.8°F18.8°C 54% 9.0 mph SSE14.5 kmh SSE 16.0 mph25.7 kmh 30.01 in1016.3 mb 0.00 in0.0 mm 0.00 in0.0 mm 0.00 in0.0 mm
12:30 PM 84.4°F29.1°C 65.9°F18.8°C 54% 11.0 mph SSE17.7 kmh SSE 21.0 mph33.8 kmh 30.01 in1016.3 mb 0.00 in0.0 mm 0.00 in0.0 mm 0.00 in0.0 mm
12:25 PM 84.6°F29.2°C 65.5°F18.6°C 53% 10.0 mph SE16.1 kmh SE 15.0 mph24.1 kmh 30.01 in1016.3 mb 0.00 in0.0 mm 0.00 in0.0 mm 0.00 in0.0 mm
12:20 PM 84.9°F29.4°C 65.8°F18.8°C 53% 5.0 mph SE8.0 kmh SE 14.0 mph22.5 kmh 30.01 in1016.3 mb 0.00 in0.0 mm 0.00 in0.0 mm 0.00 in0.0 mm
12:15 PM 85.4°F29.7°C 65.7°F18.7°C 52% 8.0 mph SE12.9 kmh SE 15.0 mph24.1 kmh 30.01 in1016.3 mb 0.00 in0.0 mm 0.00 in0.0 mm 0.00 in0.0 mm
12:10 PM 85.6°F29.8°C 65.9°F18.8°C 52% 3.0 mph SE4.8 kmh SE 16.0 mph25.7 kmh 30.02 in1016.6 mb 0.00 in0.0 mm 0.00 in0.0 mm 0.00 in0.0 mm
12:05 PM 85.7°F29.8°C 65.4°F18.6°C 51% 7.0 mph SE11.3 kmh SE 15.0 mph24.1 kmh 30.02 in1016.6 mb 0.00 in0.0 mm 0.00 in0.0 mm 0.00 in0.0 mm
12:00 PM 85.7°F29.8°C 65.4°F18.6°C 51% 9.0 mph SE14.5 kmh SE 15.0 mph24.1 kmh 30.02 in1016.6 mb 0.00 in0.0 mm 0.00 in0.0 mm 0.00 in0.0 mm
11:55 AM 85.9°F29.9°C 65.6°F18.7°C 51% 5.0 mph SE8.0 kmh SE 15.0 mph24.1 kmh 30.02 in1016.6 mb 0.00 in0.0 mm 0.00 in0.0 mm 0.00 in0.0 mm
11:50 AM 86.0°F30.0°C 65.1°F18.4°C 50% 9.0 mph SE14.5 kmh SE 14.0 mph22.5 kmh 30.02 in1016.6 mb 0.00 in0.0 mm 0.00 in0.0 mm 0.00 in0.0 mm
11:45 AM 85.9°F29.9°C 65.0°F18.3°C 50% 7.0 mph SSE11.3 kmh SSE 12.0 mph19.3 kmh 30.02 in1016.6 mb 0.00 in0.0 mm 0.00 in0.0 mm 0.00 in0.0 mm
11:40 AM 85.4°F29.7°C 65.1°F18.4°C 51% 6.0 mph E9.7 kmh E 15.0 mph24.1 kmh 30.03 in1016.9 mb 0.00 in0.0 mm 0.00 in0.0 mm 0.00 in0.0 mm
11:35 AM 85.0°F29.4°C 64.8°F18.2°C 51% 6.0 mph SSE9.7 kmh SSE 13.0 mph20.9 kmh 30.03 in1016.9 mb 0.00 in0.0 mm 0.00 in0.0 mm 0.00 in0.0 mm
11:30 AM 84.7°F29.3°C 64.5°F18.1°C 51% 9.0 mph SE14.5 kmh SE 15.0 mph24.1 kmh 30.03 in1016.9 mb 0.00 in0.0 mm 0.00 in0.0 mm 0.00 in0.0 mm
11:25 AM 84.5°F29.2°C 64.9°F18.3°C 52% 11.0 mph E17.7 kmh E 16.0 mph25.7 kmh 30.04 in1017.3 mb 0.00 in0.0 mm 0.00 in0.0 mm 0.00 in0.0 mm
11:20 AM 84.7°F29.3°C 65.0°F18.3°C 52% 9.0 mph SSE14.5 kmh SSE 14.0 mph22.5 kmh 30.03 in1016.9 mb 0.00 in0.0 mm 0.00 in0.0 mm 0.00 in0.0 mm
11:15 AM 84.6°F29.2°C 65.0°F18.3°C 52% 11.0 mph SE17.7 kmh SE 15.0 mph24.1 kmh 30.04 in1017.3 mb 0.00 in0.0 mm 0.00 in0.0 mm 0.00 in0.0 mm
11:10 AM 84.8°F29.3°C 65.1°F18.4°C 52% 8.0 mph S12.9 kmh S 15.0 mph24.1 kmh 30.04 in1017.3 mb 0.00 in0.0 mm 0.00 in0.0 mm 0.00 in0.0 mm
11:05 AM 84.7°F29.3°C 65.0°F18.3°C 52% 8.0 mph SE12.9 kmh SE 14.0 mph22.5 kmh 30.05 in1017.6 mb 0.00 in0.0 mm 0.00 in0.0 mm 0.00 in0.0 mm
11:00 AM 84.6°F29.2°C 65.0°F18.3°C 52% 4.0 mph SSE6.4 kmh SSE 15.0 mph24.1 kmh 30.05 in1017.6 mb 0.00 in0.0 mm 0.00 in0.0 mm 0.00 in0.0 mm
10:55 AM 84.7°F29.3°C 65.0°F18.3°C 52% 2.0 mph S3.2 kmh S 16.0 mph25.7 kmh 30.05 in1017.6 mb 0.00 in0.0 mm 0.00 in0.0 mm 0.00 in0.0 mm
10:50 AM 85.0°F29.4°C 65.3°F18.5°C 52% 8.0 mph SSE12.9 kmh SSE 14.0 mph22.5 kmh 30.05 in1017.6 mb 0.00 in0.0 mm 0.00 in0.0 mm 0.00 in0.0 mm
10:45 AM 84.5°F29.2°C 64.9°F18.3°C 52% 5.0 mph SE8.0 kmh SE 12.0 mph19.3 kmh 30.05 in1017.6 mb 0.00 in0.0 mm 0.00 in0.0 mm 0.00 in0.0 mm
10:40 AM 84.5°F29.2°C 64.9°F18.3°C 52% 7.0 mph SE11.3 kmh SE 13.0 mph20.9 kmh 30.05 in1017.6 mb 0.00 in0.0 mm 0.00 in0.0 mm 0.00 in0.0 mm
10:35 AM 84.3°F29.1°C 64.7°F18.2°C 52% 4.0 mph SE6.4 kmh SE 11.0 mph17.7 kmh 30.05 in1017.6 mb 0.00 in0.0 mm 0.00 in0.0 mm 0.00 in0.0 mm
10:30 AM 84.2°F29.0°C 65.1°F18.4°C 53% 4.0 mph SSE6.4 kmh SSE 12.0 mph19.3 kmh 30.06 in1017.9 mb 0.00 in0.0 mm 0.00 in0.0 mm 0.00 in0.0 mm
10:25 AM 83.7°F28.7°C 65.2°F18.4°C 54% 9.0 mph SSE14.5 kmh SSE 13.0 mph20.9 kmh 30.06 in1017.9 mb 0.00 in0.0 mm 0.00 in0.0 mm 0.00 in0.0 mm
10:20 AM 83.2°F28.4°C 65.3°F18.5°C 55% 8.0 mph ESE12.9 kmh ESE 15.0 mph24.1 kmh 30.06 in1017.9 mb 0.00 in0.0 mm 0.00 in0.0 mm 0.00 in0.0 mm
10:15 AM 82.9°F28.3°C 65.0°F18.3°C 55% 6.0 mph SSE9.7 kmh SSE 14.0 mph22.5 kmh 30.06 in1017.9 mb 0.00 in0.0 mm 0.00 in0.0 mm 0.00 in0.0 mm
10:10 AM 82.6°F28.1°C 65.2°F18.4°C 56% 7.0 mph SSE11.3 kmh SSE 16.0 mph25.7 kmh 30.07 in1018.3 mb 0.00 in0.0 mm 0.00 in0.0 mm 0.00 in0.0 mm
10:05 AM 82.6°F28.1°C 65.2°F18.4°C 56% 12.0 mph SSE19.3 kmh SSE 18.0 mph29.0 kmh 30.07 in1018.3 mb 0.00 in0.0 mm 0.00 in0.0 mm 0.00 in0.0 mm
10:00 AM 82.5°F28.1°C 65.1°F18.4°C 56% 6.0 mph SSE9.7 kmh SSE 15.0 mph24.1 kmh 30.07 in1018.3 mb 0.00 in0.0 mm 0.00 in0.0 mm 0.00 in0.0 mm
09:55 AM 82.3°F27.9°C 65.5°F18.6°C 57% 8.0 mph SSE12.9 kmh SSE 14.0 mph22.5 kmh 30.08 in1018.6 mb 0.00 in0.0 mm 0.00 in0.0 mm 0.00 in0.0 mm
09:50 AM 82.2°F27.9°C 65.4°F18.6°C 57% 14.0 mph SSE22.5 kmh SSE 20.0 mph32.2 kmh 30.08 in1018.6 mb 0.00 in0.0 mm 0.00 in0.0 mm 0.00 in0.0 mm
09:45 AM 82.2°F27.9°C 64.9°F18.3°C 56% 10.0 mph SE16.1 kmh SE 13.0 mph20.9 kmh 30.08 in1018.6 mb 0.00 in0.0 mm 0.00 in0.0 mm 0.00 in0.0 mm
09:40 AM 82.1°F27.8°C 64.8°F18.2°C 56% 9.0 mph SSE14.5 kmh SSE 17.0 mph27.4 kmh 30.08 in1018.6 mb 0.00 in0.0 mm 0.00 in0.0 mm 0.00 in0.0 mm
09:35 AM 81.6°F27.6°C 64.8°F18.2°C 57% 8.0 mph SE12.9 kmh SE 18.0 mph29.0 kmh 30.08 in1018.6 mb 0.00 in0.0 mm 0.00 in0.0 mm 0.00 in0.0 mm
09:30 AM 81.6°F27.6°C 64.8°F18.2°C 57% 12.0 mph SE19.3 kmh SE 26.0 mph41.8 kmh 30.08 in1018.6 mb 0.00 in0.0 mm 0.00 in0.0 mm 0.00 in0.0 mm
09:25 AM 81.6°F27.6°C 64.3°F17.9°C 56% 16.0 mph SSW25.7 kmh SSW 22.0 mph35.4 kmh 30.08 in1018.6 mb 0.00 in0.0 mm 0.00 in0.0 mm 0.00 in0.0 mm
09:20 AM 81.6°F27.6°C 64.3°F17.9°C 56% 3.0 mph S4.8 kmh S 18.0 mph29.0 kmh 30.08 in1018.6 mb 0.00 in0.0 mm 0.00 in0.0 mm 0.00 in0.0 mm
09:15 AM 81.6°F27.6°C 64.3°F17.9°C 56% 8.0 mph SE12.9 kmh SE 18.0 mph29.0 kmh 30.09 in1019.0 mb 0.00 in0.0 mm 0.00 in0.0 mm 0.00 in0.0 mm
09:10 AM 81.6°F27.6°C 64.3°F17.9°C 56% 7.0 mph ESE11.3 kmh ESE 16.0 mph25.7 kmh 30.09 in1019.0 mb 0.00 in0.0 mm 0.00 in0.0 mm 0.00 in0.0 mm
09:05 AM 81.7°F27.6°C 64.4°F18.0°C 56% 10.0 mph S16.1 kmh S 13.0 mph20.9 kmh 30.08 in1018.6 mb 0.00 in0.0 mm 0.00 in0.0 mm 0.00 in0.0 mm
09:00 AM 81.8°F27.7°C 64.5°F18.1°C 56% 5.0 mph SSE8.0 kmh SSE 12.0 mph19.3 kmh 30.09 in1019.0 mb 0.00 in0.0 mm 0.00 in0.0 mm 0.00 in0.0 mm
08:55 AM 81.5°F27.5°C 64.7°F18.2°C 57% 5.0 mph SSW8.0 kmh SSW 15.0 mph24.1 kmh 30.09 in1019.0 mb 0.00 in0.0 mm 0.00 in0.0 mm 0.00 in0.0 mm
08:50 AM 81.3°F27.4°C 64.5°F18.1°C 57% 8.0 mph SE12.9 kmh SE 13.0 mph20.9 kmh 30.09 in1019.0 mb 0.00 in0.0 mm 0.00 in0.0 mm 0.00 in0.0 mm
08:45 AM 81.2°F27.3°C 64.4°F18.0°C 57% 2.0 mph SE3.2 kmh SE 10.0 mph16.1 kmh 30.09 in1019.0 mb 0.00 in0.0 mm 0.00 in0.0 mm 0.00 in0.0 mm
08:40 AM 81.0°F27.2°C 64.8°F18.2°C 58% 5.0 mph SSE8.0 kmh SSE 16.0 mph25.7 kmh 30.09 in1019.0 mb 0.00 in0.0 mm 0.00 in0.0 mm 0.00 in0.0 mm
08:35 AM 80.9°F27.2°C 64.7°F18.2°C 58% 12.0 mph SE19.3 kmh SE 16.0 mph25.7 kmh 30.09 in1019.0 mb 0.00 in0.0 mm 0.00 in0.0 mm 0.00 in0.0 mm
08:30 AM 80.6°F27.0°C 64.4°F18.0°C 58% 8.0 mph E12.9 kmh E 12.0 mph19.3 kmh 30.10 in1019.3 mb 0.00 in0.0 mm 0.00 in0.0 mm 0.00 in0.0 mm
08:25 AM 80.3°F26.8°C 64.6°F18.1°C 59% 5.0 mph SSE8.0 kmh SSE 11.0 mph17.7 kmh 30.09 in1019.0 mb 0.00 in0.0 mm 0.00 in0.0 mm 0.00 in0.0 mm
08:20 AM 80.2°F26.8°C 64.5°F18.1°C 59% 5.0 mph ESE8.0 kmh ESE 14.0 mph22.5 kmh 30.09 in1019.0 mb 0.00 in0.0 mm 0.00 in0.0 mm 0.00 in0.0 mm
08:15 AM 80.0°F26.7°C 64.8°F18.2°C 60% 5.0 mph SSE8.0 kmh SSE 12.0 mph19.3 kmh 30.09 in1019.0 mb 0.00 in0.0 mm 0.00 in0.0 mm 0.00 in0.0 mm
08:10 AM 79.8°F26.6°C 64.6°F18.1°C 60% 7.0 mph E11.3 kmh E 8.0 mph12.9 kmh 30.09 in1019.0 mb 0.00 in0.0 mm 0.00 in0.0 mm 0.00 in0.0 mm
08:05 AM 79.4°F26.3°C 64.7°F18.2°C 61% 7.0 mph S11.3 kmh S 11.0 mph17.7 kmh 30.09 in1019.0 mb 0.00 in0.0 mm 0.00 in0.0 mm 0.00 in0.0 mm
08:00 AM 79.2°F26.2°C 65.0°F18.3°C 62% 8.0 mph SSE12.9 kmh SSE 13.0 mph20.9 kmh 30.09 in1019.0 mb 0.00 in0.0 mm 0.00 in0.0 mm 0.00 in0.0 mm
07:55 AM 78.9°F26.1°C 65.2°F18.4°C 63% 7.0 mph SE11.3 kmh SE 13.0 mph20.9 kmh 30.09 in1019.0 mb 0.00 in0.0 mm 0.00 in0.0 mm 0.00 in0.0 mm
07:50 AM 78.7°F25.9°C 65.0°F18.3°C 63% 3.0 mph S4.8 kmh S 12.0 mph19.3 kmh 30.09 in1019.0 mb 0.00 in0.0 mm 0.00 in0.0 mm 0.00 in0.0 mm
07:45 AM 78.4°F25.8°C 65.1°F18.4°C 64% 12.0 mph SE19.3 kmh SE 15.0 mph24.1 kmh 30.09 in1019.0 mb 0.00 in0.0 mm 0.00 in0.0 mm 0.00 in0.0 mm
07:40 AM 77.9°F25.5°C 65.1°F18.4°C 65% 12.0 mph SE19.3 kmh SE 12.0 mph19.3 kmh 30.09 in1019.0 mb 0.00 in0.0 mm 0.00 in0.0 mm 0.00 in0.0 mm
07:35 AM 77.6°F25.3°C 65.3°F18.5°C 66% 9.0 mph SE14.5 kmh SE 10.0 mph16.1 kmh 30.09 in1019.0 mb 0.00 in0.0 mm 0.00 in0.0 mm 0.00 in0.0 mm
07:30 AM 77.3°F25.2°C 65.4°F18.6°C 67% 4.0 mph ESE6.4 kmh ESE 8.0 mph12.9 kmh 30.09 in1019.0 mb 0.00 in0.0 mm 0.00 in0.0 mm 0.00 in0.0 mm
07:25 AM 77.0°F25.0°C 65.1°F18.4°C 67% 8.0 mph E12.9 kmh E 8.0 mph12.9 kmh 30.09 in1019.0 mb 0.00 in0.0 mm 0.00 in0.0 mm 0.00 in0.0 mm
07:20 AM 76.8°F24.9°C 64.9°F18.3°C 67% 6.0 mph SSE9.7 kmh SSE 11.0 mph17.7 kmh 30.09 in1019.0 mb 0.00 in0.0 mm 0.00 in0.0 mm 0.00 in0.0 mm
07:15 AM 76.6°F24.8°C 65.2°F18.4°C 68% 6.0 mph S9.7 kmh S 12.0 mph19.3 kmh 30.09 in1019.0 mb 0.00 in0.0 mm 0.00 in0.0 mm 0.00 in0.0 mm
07:10 AM 76.0°F24.4°C 65.0°F18.3°C 69% 8.0 mph SE12.9 kmh SE 11.0 mph17.7 kmh 30.08 in1018.6 mb 0.00 in0.0 mm 0.00 in0.0 mm 0.00 in0.0 mm
07:05 AM 75.3°F24.1°C 64.8°F18.2°C 70% 5.0 mph SE8.0 kmh SE 9.0 mph14.5 kmh 30.08 in1018.6 mb 0.00 in0.0 mm 0.00 in0.0 mm 0.00 in0.0 mm
07:00 AM 74.9°F23.8°C 64.8°F18.2°C 71% Calm Calm 4.0 mph6.4 kmh 30.07 in1018.3 mb 0.00 in0.0 mm 0.00 in0.0 mm 0.00 in0.0 mm
06:55 AM 74.5°F23.6°C 64.4°F18.0°C 71% Calm Calm 5.0 mph8.0 kmh 30.08 in1018.6 mb 0.00 in0.0 mm 0.00 in0.0 mm 0.00 in0.0 mm
06:50 AM 74.3°F23.5°C 64.2°F17.9°C 71% 3.0 mph SE4.8 kmh SE 6.0 mph9.7 kmh 30.07 in1018.3 mb 0.00 in0.0 mm 0.00 in0.0 mm 0.00 in0.0 mm
06:45 AM 74.4°F23.6°C 64.3°F17.9°C 71% 3.0 mph SE4.8 kmh SE 7.0 mph11.3 kmh 30.07 in1018.3 mb 0.00 in0.0 mm 0.00 in0.0 mm 0.00 in0.0 mm
06:40 AM 74.3°F23.5°C 64.2°F17.9°C 71% 4.0 mph ESE6.4 kmh ESE 4.0 mph6.4 kmh 30.07 in1018.3 mb 0.00 in0.0 mm 0.00 in0.0 mm 0.00 in0.0 mm
06:35 AM 74.1°F23.4°C 64.0°F17.8°C 71% 3.0 mph ESE4.8 kmh ESE 3.0 mph4.8 kmh 30.07 in1018.3 mb 0.00 in0.0 mm 0.00 in0.0 mm 0.00 in0.0 mm
06:30 AM 74.1°F23.4°C 64.0°F17.8°C 71% 2.0 mph ESE3.2 kmh ESE 5.0 mph8.0 kmh 30.07 in1018.3 mb 0.00 in0.0 mm 0.00 in0.0 mm 0.00 in0.0 mm
06:25 AM 74.0°F23.3°C 63.9°F17.7°C 71% Calm Calm -- 30.07 in1018.3 mb 0.00 in0.0 mm 0.00 in0.0 mm 0.00 in0.0 mm
06:20 AM 73.8°F23.2°C 64.1°F17.8°C 72% Calm Calm -- 30.07 in1018.3 mb 0.00 in0.0 mm 0.00 in0.0 mm 0.00 in0.0 mm
06:15 AM 73.7°F23.2°C 64.0°F17.8°C 72% Calm Calm 4.0 mph6.4 kmh 30.07 in1018.3 mb 0.00 in0.0 mm 0.00 in0.0 mm 0.00 in0.0 mm
06:10 AM 73.6°F23.1°C 64.0°F17.8°C 72% 3.0 mph NNE4.8 kmh NNE 4.0 mph6.4 kmh 30.07 in1018.3 mb 0.00 in0.0 mm 0.00 in0.0 mm 0.00 in0.0 mm
06:05 AM 73.8°F23.2°C 63.7°F17.6°C 71% Calm Calm 1.0 mph1.6 kmh 30.07 in1018.3 mb 0.00 in0.0 mm 0.00 in0.0 mm 0.00 in0.0 mm
06:00 AM 74.0°F23.3°C 63.9°F17.7°C 71% Calm Calm 3.0 mph4.8 kmh 30.06 in1017.9 mb 0.00 in0.0 mm 0.00 in0.0 mm 0.00 in0.0 mm
05:55 AM 74.3°F23.5°C 63.8°F17.7°C 70% 2.0 mph NNE3.2 kmh NNE 4.0 mph6.4 kmh 30.06 in1017.9 mb 0.00 in0.0 mm 0.00 in0.0 mm 0.00 in0.0 mm
05:50 AM 74.7°F23.7°C 64.2°F17.9°C 70% 1.0 mph E1.6 kmh E 3.0 mph4.8 kmh 30.07 in1018.3 mb 0.00 in0.0 mm 0.00 in0.0 mm 0.00 in0.0 mm
05:45 AM 74.9°F23.8°C 64.4°F18.0°C 70% Calm Calm 3.0 mph4.8 kmh 30.07 in1018.3 mb 0.00 in0.0 mm 0.00 in0.0 mm 0.00 in0.0 mm
05:40 AM 75.0°F23.9°C 64.5°F18.1°C 70% Calm Calm 3.0 mph4.8 kmh 30.07 in1018.3 mb 0.00 in0.0 mm 0.00 in0.0 mm 0.00 in0.0 mm
05:35 AM 74.8°F23.8°C 64.7°F18.2°C 71% Calm Calm 5.0 mph8.0 kmh 30.07 in1018.3 mb 0.00 in0.0 mm 0.00 in0.0 mm 0.00 in0.0 mm
05:30 AM 74.3°F23.5°C 64.2°F17.9°C 71% Calm Calm 3.0 mph4.8 kmh 30.07 in1018.3 mb 0.00 in0.0 mm 0.00 in0.0 mm 0.00 in0.0 mm
05:25 AM 74.0°F23.3°C 63.9°F17.7°C 71% Calm Calm 5.0 mph8.0 kmh 30.07 in1018.3 mb 0.00 in0.0 mm 0.00 in0.0 mm 0.00 in0.0 mm
05:20 AM 73.8°F23.2°C 63.7°F17.6°C 71% Calm Calm 3.0 mph4.8 kmh 30.07 in1018.3 mb 0.00 in0.0 mm 0.00 in0.0 mm 0.00 in0.0 mm
05:15 AM 73.8°F23.2°C 63.7°F17.6°C 71% 3.0 mph W4.8 kmh W 4.0 mph6.4 kmh 30.07 in1018.3 mb 0.00 in0.0 mm 0.00 in0.0 mm 0.00 in0.0 mm
05:10 AM 73.9°F23.3°C 63.8°F17.7°C 71% Calm Calm -- 30.06 in1017.9 mb 0.00 in0.0 mm 0.00 in0.0 mm 0.00 in0.0 mm
05:05 AM 73.9°F23.3°C 63.8°F17.7°C 71% Calm Calm 3.0 mph4.8 kmh 30.06 in1017.9 mb 0.00 in0.0 mm 0.00 in0.0 mm 0.00 in0.0 mm
05:00 AM 73.9°F23.3°C 63.8°F17.7°C 71% 3.0 mph E4.8 kmh E 3.0 mph4.8 kmh 30.06 in1017.9 mb 0.00 in0.0 mm 0.00 in0.0 mm 0.00 in0.0 mm
04:55 AM 74.0°F23.3°C 63.9°F17.7°C 71% 2.0 mph ESE3.2 kmh ESE 5.0 mph8.0 kmh 30.06 in1017.9 mb 0.00 in0.0 mm 0.00 in0.0 mm 0.00 in0.0 mm
04:50 AM 73.9°F23.3°C 63.8°F17.7°C 71% 3.0 mph SE4.8 kmh SE 5.0 mph8.0 kmh 30.06 in1017.9 mb 0.00 in0.0 mm 0.00 in0.0 mm 0.00 in0.0 mm
04:45 AM 73.7°F23.2°C 64.0°F17.8°C 72% 3.0 mph SE4.8 kmh SE 8.0 mph12.9 kmh 30.06 in1017.9 mb 0.00 in0.0 mm 0.00 in0.0 mm 0.00 in0.0 mm
04:40 AM 73.5°F23.1°C 63.9°F17.7°C 72% 3.0 mph E4.8 kmh E 5.0 mph8.0 kmh 30.06 in1017.9 mb 0.00 in0.0 mm 0.00 in0.0 mm 0.00 in0.0 mm
04:35 AM 73.3°F22.9°C 64.1°F17.8°C 73% 4.0 mph SE6.4 kmh SE 5.0 mph8.0 kmh 30.07 in1018.3 mb 0.00 in0.0 mm 0.00 in0.0 mm 0.00 in0.0 mm
04:30 AM 73.3°F22.9°C 64.1°F17.8°C 73% Calm Calm 4.0 mph6.4 kmh 30.07 in1018.3 mb 0.00 in0.0 mm 0.00 in0.0 mm 0.00 in0.0 mm
04:25 AM 73.3°F22.9°C 64.1°F17.8°C 73% 1.0 mph SE1.6 kmh SE 7.0 mph11.3 kmh 30.07 in1018.3 mb 0.00 in0.0 mm 0.00 in0.0 mm 0.00 in0.0 mm
04:20 AM 73.3°F22.9°C 64.1°F17.8°C 73% Calm Calm 5.0 mph8.0 kmh 30.07 in1018.3 mb 0.00 in0.0 mm 0.00 in0.0 mm 0.00 in0.0 mm
04:15 AM 73.3°F22.9°C 64.1°F17.8°C 73% 5.0 mph E8.0 kmh E 6.0 mph9.7 kmh 30.06 in1017.9 mb 0.00 in0.0 mm 0.00 in0.0 mm 0.00 in0.0 mm
04:10 AM 73.4°F23.0°C 63.8°F17.7°C 72% 2.0 mph E3.2 kmh E 8.0 mph12.9 kmh 30.07 in1018.3 mb 0.00 in0.0 mm 0.00 in0.0 mm 0.00 in0.0 mm
04:05 AM 73.4°F23.0°C 63.8°F17.7°C 72% 4.0 mph E6.4 kmh E 8.0 mph12.9 kmh 30.07 in1018.3 mb 0.00 in0.0 mm 0.00 in0.0 mm 0.00 in0.0 mm
04:00 AM 73.3°F22.9°C 64.1°F17.8°C 73% 3.0 mph ESE4.8 kmh ESE 10.0 mph16.1 kmh 30.08 in1018.6 mb 0.00 in0.0 mm 0.00 in0.0 mm 0.00 in0.0 mm
03:55 AM 73.0°F22.8°C 63.8°F17.7°C 73% 5.0 mph SE8.0 kmh SE 5.0 mph8.0 kmh 30.08 in1018.6 mb 0.00 in0.0 mm 0.00 in0.0 mm 0.00 in0.0 mm
03:50 AM 73.0°F22.8°C 63.8°F17.7°C 73% 1.0 mph SE1.6 kmh SE 5.0 mph8.0 kmh 30.08 in1018.6 mb 0.00 in0.0 mm 0.00 in0.0 mm 0.00 in0.0 mm
03:45 AM 73.0°F22.8°C 63.8°F17.7°C 73% 3.0 mph SE4.8 kmh SE 5.0 mph8.0 kmh 30.08 in1018.6 mb 0.00 in0.0 mm 0.00 in0.0 mm 0.00 in0.0 mm
03:40 AM 73.0°F22.8°C 64.2°F17.9°C 74% 1.0 mph SE1.6 kmh SE 5.0 mph8.0 kmh 30.08 in1018.6 mb 0.00 in0.0 mm 0.00 in0.0 mm 0.00 in0.0 mm
03:35 AM 72.8°F22.7°C 64.0°F17.8°C 74% 5.0 mph SE8.0 kmh SE 5.0 mph8.0 kmh 30.08 in1018.6 mb 0.00 in0.0 mm 0.00 in0.0 mm 0.00 in0.0 mm
03:30 AM 72.6°F22.6°C 64.2°F17.9°C 75% 4.0 mph SE6.4 kmh SE 6.0 mph9.7 kmh 30.09 in1019.0 mb 0.00 in0.0 mm 0.00 in0.0 mm 0.00 in0.0 mm
03:25 AM 72.4°F22.4°C 64.0°F17.8°C 75% 3.0 mph SE4.8 kmh SE 5.0 mph8.0 kmh 30.09 in1019.0 mb 0.00 in0.0 mm 0.00 in0.0 mm 0.00 in0.0 mm
03:20 AM 72.4°F22.4°C 64.0°F17.8°C 75% 2.0 mph SE3.2 kmh SE 4.0 mph6.4 kmh 30.09 in1019.0 mb 0.00 in0.0 mm 0.00 in0.0 mm 0.00 in0.0 mm
03:15 AM 72.6°F22.6°C 63.8°F17.7°C 74% Calm Calm 4.0 mph6.4 kmh 30.09 in1019.0 mb 0.00 in0.0 mm 0.00 in0.0 mm 0.00 in0.0 mm
03:10 AM 72.6°F22.6°C 63.8°F17.7°C 74% 1.0 mph ESE1.6 kmh ESE 4.0 mph6.4 kmh 30.09 in1019.0 mb 0.00 in0.0 mm 0.00 in0.0 mm 0.00 in0.0 mm
03:05 AM 72.6°F22.6°C 63.8°F17.7°C 74% 3.0 mph ESE4.8 kmh ESE 5.0 mph8.0 kmh 30.09 in1019.0 mb 0.00 in0.0 mm 0.00 in0.0 mm 0.00 in0.0 mm
03:00 AM 72.6°F22.6°C 63.8°F17.7°C 74% Calm Calm 2.0 mph3.2 kmh 30.09 in1019.0 mb 0.00 in0.0 mm 0.00 in0.0 mm 0.00 in0.0 mm
02:55 AM 72.6°F22.6°C 64.2°F17.9°C 75% Calm Calm 2.0 mph3.2 kmh 30.09 in1019.0 mb 0.00 in0.0 mm 0.00 in0.0 mm 0.00 in0.0 mm
02:50 AM 72.6°F22.6°C 64.2°F17.9°C 75% Calm Calm 3.0 mph4.8 kmh 30.10 in1019.3 mb 0.00 in0.0 mm 0.00 in0.0 mm 0.00 in0.0 mm
02:45 AM 72.7°F22.6°C 63.9°F17.7°C 74% 2.0 mph ESE3.2 kmh ESE 5.0 mph8.0 kmh 30.10 in1019.3 mb 0.00 in0.0 mm 0.00 in0.0 mm 0.00 in0.0 mm
02:40 AM 72.8°F22.7°C 64.0°F17.8°C 74% Calm Calm 3.0 mph4.8 kmh 30.10 in1019.3 mb 0.00 in0.0 mm 0.00 in0.0 mm 0.00 in0.0 mm
02:35 AM 72.9°F22.7°C 64.1°F17.8°C 74% Calm Calm 2.0 mph3.2 kmh 30.11 in1019.6 mb 0.00 in0.0 mm 0.00 in0.0 mm 0.00 in0.0 mm
02:30 AM 72.9°F22.7°C 64.1°F17.8°C 74% Calm Calm 3.0 mph4.8 kmh 30.11 in1019.6 mb 0.00 in0.0 mm 0.00 in0.0 mm 0.00 in0.0 mm
02:25 AM 73.0°F22.8°C 64.2°F17.9°C 74% Calm Calm 3.0 mph4.8 kmh 30.11 in1019.6 mb 0.00 in0.0 mm 0.00 in0.0 mm 0.00 in0.0 mm
02:20 AM 73.0°F22.8°C 64.2°F17.9°C 74% 2.0 mph ESE3.2 kmh ESE 4.0 mph6.4 kmh 30.12 in1020.0 mb 0.00 in0.0 mm 0.00 in0.0 mm 0.00 in0.0 mm
02:15 AM 72.9°F22.7°C 64.1°F17.8°C 74% 2.0 mph ESE3.2 kmh ESE 5.0 mph8.0 kmh 30.12 in1020.0 mb 0.00 in0.0 mm 0.00 in0.0 mm 0.00 in0.0 mm
02:10 AM 72.9°F22.7°C 64.1°F17.8°C 74% 5.0 mph SE8.0 kmh SE 8.0 mph12.9 kmh 30.12 in1020.0 mb 0.00 in0.0 mm 0.00 in0.0 mm 0.00 in0.0 mm
02:05 AM 73.0°F22.8°C 64.2°F17.9°C 74% 1.0 mph ESE1.6 kmh ESE 8.0 mph12.9 kmh 30.12 in1020.0 mb 0.00 in0.0 mm 0.00 in0.0 mm 0.00 in0.0 mm
02:00 AM 73.1°F22.8°C 63.9°F17.7°C 73% 3.0 mph ESE4.8 kmh ESE 4.0 mph6.4 kmh 30.12 in1020.0 mb 0.00 in0.0 mm 0.00 in0.0 mm 0.00 in0.0 mm
01:55 AM 73.3°F22.9°C 64.1°F17.8°C 73% 1.0 mph SE1.6 kmh SE 6.0 mph9.7 kmh 30.13 in1020.3 mb 0.00 in0.0 mm 0.00 in0.0 mm 0.00 in0.0 mm
01:50 AM 73.5°F23.1°C 64.2°F17.9°C 73% 4.0 mph SE6.4 kmh SE 5.0 mph8.0 kmh 30.13 in1020.3 mb 0.00 in0.0 mm 0.00 in0.0 mm 0.00 in0.0 mm
01:45 AM 73.9°F23.3°C 64.2°F17.9°C 72% 2.0 mph SSE3.2 kmh SSE 4.0 mph6.4 kmh 30.13 in1020.3 mb 0.00 in0.0 mm 0.00 in0.0 mm 0.00 in0.0 mm
01:40 AM 74.2°F23.4°C 64.1°F17.8°C 71% 1.0 mph S1.6 kmh S 3.0 mph4.8 kmh 30.13 in1020.3 mb 0.00 in0.0 mm 0.00 in0.0 mm 0.00 in0.0 mm
01:35 AM 74.3°F23.5°C 64.6°F18.1°C 72% Calm Calm 4.0 mph6.4 kmh 30.13 in1020.3 mb 0.00 in0.0 mm 0.00 in0.0 mm 0.00 in0.0 mm
01:30 AM 74.3°F23.5°C 64.2°F17.9°C 71% Calm Calm 3.0 mph4.8 kmh 30.13 in1020.3 mb 0.00 in0.0 mm 0.00 in0.0 mm 0.00 in0.0 mm
01:25 AM 74.3°F23.5°C 64.2°F17.9°C 71% 3.0 mph SSE4.8 kmh SSE 7.0 mph11.3 kmh 30.13 in1020.3 mb 0.00 in0.0 mm 0.00 in0.0 mm 0.00 in0.0 mm
01:20 AM 74.2°F23.4°C 64.5°F18.1°C 72% 3.0 mph SSE4.8 kmh SSE 7.0 mph11.3 kmh 30.13 in1020.3 mb 0.00 in0.0 mm 0.00 in0.0 mm 0.00 in0.0 mm
01:15 AM 74.2°F23.4°C 64.1°F17.8°C 71% 1.0 mph SSE1.6 kmh SSE 6.0 mph9.7 kmh 30.13 in1020.3 mb 0.00 in0.0 mm 0.00 in0.0 mm 0.00 in0.0 mm
01:10 AM 74.3°F23.5°C 64.2°F17.9°C 71% 3.0 mph SE4.8 kmh SE 6.0 mph9.7 kmh 30.12 in1020.0 mb 0.00 in0.0 mm 0.00 in0.0 mm 0.00 in0.0 mm
01:05 AM 74.3°F23.5°C 64.2°F17.9°C 71% 4.0 mph SE6.4 kmh SE 5.0 mph8.0 kmh 30.13 in1020.3 mb 0.00 in0.0 mm 0.00 in0.0 mm 0.00 in0.0 mm
01:00 AM 74.4°F23.6°C 64.3°F17.9°C 71% 1.0 mph ESE1.6 kmh ESE 4.0 mph6.4 kmh 30.12 in1020.0 mb 0.00 in0.0 mm 0.00 in0.0 mm 0.00 in0.0 mm
12:55 AM 74.4°F23.6°C 64.3°F17.9°C 71% Calm Calm 6.0 mph9.7 kmh 30.12 in1020.0 mb 0.00 in0.0 mm 0.00 in0.0 mm 0.00 in0.0 mm
12:50 AM 74.5°F23.6°C 64.4°F18.0°C 71% 3.0 mph SE4.8 kmh SE 8.0 mph12.9 kmh 30.12 in1020.0 mb 0.00 in0.0 mm 0.00 in0.0 mm 0.00 in0.0 mm
12:45 AM 74.5°F23.6°C 64.4°F18.0°C 71% 2.0 mph SE3.2 kmh SE 9.0 mph14.5 kmh 30.11 in1019.6 mb 0.00 in0.0 mm 0.00 in0.0 mm 0.00 in0.0 mm
12:40 AM 74.4°F23.6°C 64.3°F17.9°C 71% 8.0 mph SE12.9 kmh SE 11.0 mph17.7 kmh 30.11 in1019.6 mb 0.00 in0.0 mm 0.00 in0.0 mm 0.00 in0.0 mm
12:35 AM 74.5°F23.6°C 64.4°F18.0°C 71% 4.0 mph SSE6.4 kmh SSE 11.0 mph17.7 kmh 30.11 in1019.6 mb 0.00 in0.0 mm 0.00 in0.0 mm 0.00 in0.0 mm
12:30 AM 74.6°F23.7°C 64.1°F17.8°C 70% 5.0 mph SE8.0 kmh SE 7.0 mph11.3 kmh 30.11 in1019.6 mb 0.00 in0.0 mm 0.00 in0.0 mm 0.00 in0.0 mm
12:25 AM 74.6°F23.7°C 64.5°F18.1°C 71% 4.0 mph SE6.4 kmh SE 9.0 mph14.5 kmh 30.11 in1019.6 mb 0.00 in0.0 mm 0.00 in0.0 mm 0.00 in0.0 mm
12:20 AM 74.6°F23.7°C 64.1°F17.8°C 70% 4.0 mph SE6.4 kmh SE 10.0 mph16.1 kmh 30.11 in1019.6 mb 0.00 in0.0 mm 0.00 in0.0 mm 0.00 in0.0 mm
12:15 AM 74.5°F23.6°C 64.4°F18.0°C 71% 8.0 mph ESE12.9 kmh ESE 8.0 mph12.9 kmh 30.11 in1019.6 mb 0.00 in0.0 mm 0.00 in0.0 mm 0.00 in0.0 mm
12:10 AM 74.4°F23.6°C 63.9°F17.7°C 70% 3.0 mph SE4.8 kmh SE 8.0 mph12.9 kmh 30.10 in1019.3 mb 0.00 in0.0 mm 0.00 in0.0 mm 0.00 in0.0 mm
12:05 AM 74.5°F23.6°C 64.0°F17.8°C 70% 2.0 mph SE3.2 kmh SE 8.0 mph12.9 kmh 30.10 in1019.3 mb 0.00 in0.0 mm 0.00 in0.0 mm 0.00 in0.0 mm
12:00 AM 74.6°F23.7°C 64.1°F17.8°C 70% 4.0 mph ESE6.4 kmh ESE 9.0 mph14.5 kmh 30.10 in1019.3 mb 0.00 in0.0 mm 0.00 in0.0 mm 0.00 in0.0 mm